createdAt,value
2017-11-13T00:00:25.112Z,88.35
2017-11-13T00:01:52.273Z,88.50
2017-11-13T00:03:19.574Z,88.47
2017-11-13T00:04:46.774Z,88.71
2017-11-13T00:06:17.875Z,88.73
2017-11-13T00:07:41.325Z,88.67
2017-11-13T00:09:08.469Z,88.90
2017-11-13T00:10:39.475Z,89.33
2017-11-13T00:12:02.725Z,89.65
2017-11-13T00:13:30.191Z,89.99
2017-11-13T00:14:57.449Z,90.52
2017-11-13T00:16:28.730Z,90.56
2017-11-13T00:17:55.910Z,90.59
2017-11-13T00:19:19.081Z,90.44
2017-11-13T00:20:50.398Z,90.12
2017-11-13T00:22:17.516Z,89.88
2017-11-13T00:23:40.759Z,89.62
2017-11-13T00:25:08.046Z,89.80
2017-11-13T00:26:35.032Z,89.82
2017-11-13T00:28:02.528Z,90.10
2017-11-13T00:29:29.758Z,89.97
2017-11-13T00:31:00.905Z,89.83
2017-11-13T00:32:28.209Z,89.62
2017-11-13T00:33:55.494Z,89.61
2017-11-13T00:35:22.800Z,89.52
2017-11-13T00:36:50.080Z,89.48
2017-11-13T00:38:13.345Z,89.48
2017-11-13T00:39:44.489Z,89.38
2017-11-13T00:41:11.811Z,89.39
2017-11-13T00:42:39.097Z,89.36
2017-11-13T00:44:06.494Z,89.31
2017-11-13T00:45:29.831Z,89.40
2017-11-13T00:46:56.949Z,89.15
2017-11-13T00:48:24.276Z,89.14
2017-11-13T00:49:51.910Z,89.19
2017-11-13T00:51:19.205Z,89.31
2017-11-13T00:52:50.519Z,89.10
2017-11-13T00:54:17.872Z,88.92
2017-11-13T00:55:41.078Z,88.91
2017-11-13T00:57:12.058Z,88.76
2017-11-13T00:58:35.168Z,88.92
2017-11-13T01:00:02.276Z,89.00
2017-11-13T01:01:29.370Z,88.86
2017-11-13T01:02:56.636Z,88.89
2017-11-13T01:04:27.788Z,88.89
2017-11-13T01:05:51.000Z,88.85
2017-11-13T01:07:22.310Z,88.84
2017-11-13T01:08:49.704Z,88.77
2017-11-13T01:10:16.889Z,88.64
2017-11-13T01:11:40.033Z,88.65
2017-11-13T01:13:07.141Z,88.73
2017-11-13T01:14:38.439Z,88.81
2017-11-13T01:16:01.752Z,89.36
2017-11-13T01:17:32.927Z,89.66
2017-11-13T01:18:56.225Z,90.50
2017-11-13T01:20:27.464Z,90.99
2017-11-13T01:21:50.657Z,91.15
2017-11-13T01:23:21.790Z,91.41
2017-11-13T01:24:49.224Z,91.28
2017-11-13T01:26:12.574Z,91.62
2017-11-13T01:27:43.644Z,92.25
2017-11-13T01:29:10.847Z,92.34
2017-11-13T01:30:34.247Z,92.31
2017-11-13T01:32:05.536Z,92.25
2017-11-13T01:33:32.952Z,92.21
2017-11-13T01:35:00.043Z,92.08
2017-11-13T01:36:23.274Z,92.06
2017-11-13T01:37:54.412Z,92.24
2017-11-13T01:39:17.663Z,92.33
2017-11-13T01:40:44.976Z,92.35
2017-11-13T01:42:16.265Z,92.37
2017-11-13T01:43:39.495Z,92.36
2017-11-13T01:45:06.691Z,91.97
2017-11-13T01:46:37.959Z,91.98
2017-11-13T01:48:05.228Z,91.90
2017-11-13T01:49:28.444Z,92.02
2017-11-13T01:50:55.764Z,91.86
2017-11-13T01:52:27.069Z,91.48
2017-11-13T01:53:54.460Z,91.49
2017-11-13T01:55:17.401Z,91.33
2017-11-13T01:56:44.696Z,91.39
2017-11-13T01:58:16.080Z,91.81
2017-11-13T01:59:43.267Z,91.72
2017-11-13T02:01:10.541Z,91.54
2017-11-13T02:02:37.634Z,91.72
2017-11-13T02:04:01.129Z,91.55
2017-11-13T02:05:32.464Z,91.74
2017-11-13T02:06:59.511Z,91.76
2017-11-13T02:08:26.744Z,91.51
2017-11-13T02:09:54.182Z,91.52
2017-11-13T02:11:21.151Z,91.36
2017-11-13T02:12:44.516Z,91.40
2017-11-13T02:14:11.801Z,91.80
2017-11-13T02:15:38.998Z,92.10
2017-11-13T02:17:06.195Z,91.98
2017-11-13T02:18:33.475Z,91.97
2017-11-13T02:20:00.812Z,91.97
2017-11-13T02:21:32.157Z,91.81
2017-11-13T02:22:55.440Z,92.03
2017-11-13T02:24:26.540Z,92.46
2017-11-13T02:25:53.856Z,92.82
2017-11-13T02:27:17.127Z,92.56
2017-11-13T02:28:48.368Z,92.34
2017-11-13T02:30:15.678Z,92.13
2017-11-13T02:31:42.714Z,92.08
2017-11-13T02:33:09.998Z,91.89
2017-11-13T02:34:33.090Z,91.69
2017-11-13T02:36:04.386Z,91.14
2017-11-13T02:37:27.653Z,90.82
2017-11-13T02:38:58.895Z,90.45
2017-11-13T02:40:21.846Z,90.58
2017-11-13T02:41:53.017Z,90.75
2017-11-13T02:43:20.461Z,90.94
2017-11-13T02:44:43.707Z,91.11
2017-11-13T02:46:14.958Z,91.51
2017-11-13T02:47:42.224Z,91.91
2017-11-13T02:49:05.169Z,92.11
2017-11-13T02:50:32.318Z,92.32
2017-11-13T02:51:59.848Z,92.48
2017-11-13T02:53:30.956Z,92.50
2017-11-13T02:54:54.058Z,92.92
2017-11-13T02:56:21.297Z,92.88
2017-11-13T02:57:52.576Z,92.87
2017-11-13T02:59:19.869Z,92.77
2017-11-13T03:00:46.929Z,92.89
2017-11-13T03:02:10.380Z,92.78
2017-11-13T03:03:41.293Z,92.30
2017-11-13T03:05:04.683Z,92.29
2017-11-13T03:06:35.645Z,92.60
2017-11-13T03:07:58.798Z,92.30
2017-11-13T03:09:29.937Z,92.33
2017-11-13T03:10:53.178Z,92.44
2017-11-13T03:12:24.529Z,92.46
2017-11-13T03:13:52.225Z,92.76
2017-11-13T03:15:19.602Z,92.80
2017-11-13T03:16:42.828Z,93.14
2017-11-13T03:18:13.890Z,93.18
2017-11-13T03:19:37.284Z,93.54
2017-11-13T03:21:08.452Z,93.64
2017-11-13T03:22:31.639Z,93.98
2017-11-13T03:24:02.877Z,94.25
2017-11-13T03:25:30.184Z,94.10
2017-11-13T03:26:57.455Z,93.97
2017-11-13T03:28:24.688Z,93.93
2017-11-13T03:29:52.058Z,93.87
2017-11-13T03:31:19.366Z,93.98
2017-11-13T03:32:42.611Z,94.10
2017-11-13T03:34:13.800Z,94.41
2017-11-13T03:35:37.052Z,93.97
2017-11-13T03:37:08.459Z,93.65
2017-11-13T03:38:31.688Z,93.10
2017-11-13T03:39:59.053Z,92.50
2017-11-13T03:41:30.295Z,92.59
2017-11-13T03:42:53.584Z,92.25
2017-11-13T03:44:24.951Z,92.04
2017-11-13T03:45:52.131Z,91.79
2017-11-13T03:47:19.389Z,91.56
2017-11-13T03:48:46.694Z,91.64
2017-11-13T03:50:10.016Z,91.67
2017-11-13T03:51:37.213Z,91.88
2017-11-13T03:53:04.466Z,91.81
2017-11-13T03:54:31.872Z,91.88
2017-11-13T03:56:03.115Z,91.81
2017-11-13T03:57:30.344Z,92.26
2017-11-13T03:58:53.637Z,92.21
2017-11-13T04:00:20.944Z,92.31
2017-11-13T04:01:48.326Z,92.16
2017-11-13T04:03:19.448Z,91.65
2017-11-13T04:04:46.669Z,92.10
2017-11-13T04:06:14.061Z,92.12
2017-11-13T04:07:37.299Z,91.72
2017-11-13T04:09:08.550Z,91.68
2017-11-13T04:10:31.835Z,91.53
2017-11-13T04:11:59.122Z,91.16
2017-11-13T04:13:26.299Z,90.81
2017-11-13T04:14:53.581Z,90.61
2017-11-13T04:16:24.780Z,90.41
2017-11-13T04:17:48.185Z,90.39
2017-11-13T04:19:19.389Z,90.10
2017-11-13T04:20:42.631Z,89.87
2017-11-13T04:22:13.870Z,89.62
2017-11-13T04:23:37.235Z,89.54
2017-11-13T04:25:08.397Z,89.44
2017-11-13T04:26:35.466Z,89.49
2017-11-13T04:27:58.731Z,89.69
2017-11-13T04:29:30.086Z,89.93
2017-11-13T04:30:57.126Z,89.95
2017-11-13T04:32:24.264Z,90.02
2017-11-13T04:33:47.504Z,89.99
2017-11-13T04:35:18.713Z,89.55
2017-11-13T04:36:41.933Z,89.92
2017-11-13T04:38:08.996Z,90.06
2017-11-13T04:39:36.267Z,90.25
2017-11-13T04:41:03.552Z,90.21
2017-11-13T04:42:34.673Z,89.90
2017-11-13T04:43:57.862Z,89.82
2017-11-13T04:45:25.203Z,90.04
2017-11-13T04:46:52.576Z,90.06
2017-11-13T04:48:23.733Z,90.09
2017-11-13T04:49:46.824Z,90.06
2017-11-13T04:51:18.094Z,89.89
2017-11-13T04:52:41.263Z,90.12
2017-11-13T04:54:12.458Z,90.08
2017-11-13T04:55:35.504Z,89.74
2017-11-13T04:57:06.780Z,90.42
2017-11-13T04:58:34.055Z,90.41
2017-11-13T04:59:57.319Z,91.09
2017-11-13T05:01:28.539Z,91.22
2017-11-13T05:02:51.730Z,91.41
2017-11-13T05:04:23.021Z,91.59
2017-11-13T05:05:46.329Z,91.58
2017-11-13T05:07:17.648Z,91.80
2017-11-13T05:08:44.810Z,91.74
2017-11-13T05:10:12.009Z,91.11
2017-11-13T05:11:39.022Z,91.53
2017-11-13T05:13:02.323Z,91.65
2017-11-13T05:14:33.475Z,91.41
2017-11-13T05:16:00.804Z,91.81
2017-11-13T05:17:28.104Z,91.47
2017-11-13T05:18:55.197Z,91.57
2017-11-13T05:20:18.497Z,91.55
2017-11-13T05:21:45.739Z,91.43
2017-11-13T05:23:13.171Z,91.66
2017-11-13T05:24:44.467Z,91.65
2017-11-13T05:26:07.713Z,91.46
2017-11-13T05:27:38.800Z,91.20
2017-11-13T05:29:05.969Z,91.59
2017-11-13T05:30:33.297Z,91.54
2017-11-13T05:32:00.631Z,91.58
2017-11-13T05:33:24.071Z,91.79
2017-11-13T05:34:55.115Z,91.89
2017-11-13T05:36:18.373Z,92.09
2017-11-13T05:37:49.651Z,92.49
2017-11-13T05:39:12.839Z,92.81
2017-11-13T05:40:44.115Z,92.77
2017-11-13T05:42:07.320Z,92.52
2017-11-13T05:43:38.531Z,92.79
2017-11-13T05:45:05.601Z,92.68
2017-11-13T05:46:28.858Z,92.43
2017-11-13T05:47:56.225Z,92.60
2017-11-13T05:49:27.424Z,92.29
2017-11-13T05:50:54.781Z,92.42
2017-11-13T05:52:21.880Z,92.24
2017-11-13T05:53:45.125Z,92.11
2017-11-13T05:55:16.373Z,91.80
2017-11-13T05:56:43.550Z,91.77
2017-11-13T05:58:10.521Z,91.80
2017-11-13T05:59:37.742Z,92.32
2017-11-13T06:01:05.146Z,92.40
2017-11-13T06:02:28.323Z,92.26
2017-11-13T06:03:59.330Z,93.41
2017-11-13T06:05:22.634Z,93.75
2017-11-13T06:06:49.931Z,93.89
2017-11-13T06:08:17.240Z,94.10
2017-11-13T06:09:44.464Z,94.19
2017-11-13T06:11:11.746Z,93.89
2017-11-13T06:12:42.977Z,93.88
2017-11-13T06:14:09.986Z,93.96
2017-11-13T06:15:37.337Z,93.90
2017-11-13T06:17:00.702Z,93.71
2017-11-13T06:18:32.003Z,94.03
2017-11-13T06:19:59.345Z,93.82
2017-11-13T06:21:22.714Z,93.47
2017-11-13T06:22:53.893Z,93.67
2017-11-13T06:24:21.085Z,93.57
2017-11-13T06:25:44.390Z,93.29
2017-11-13T06:27:15.668Z,93.44
2017-11-13T06:28:38.953Z,93.27
2017-11-13T06:30:05.936Z,93.07
2017-11-13T06:31:33.185Z,92.99
2017-11-13T06:33:04.529Z,92.95
2017-11-13T06:34:31.888Z,92.97
2017-11-13T06:35:59.067Z,92.97
2017-11-13T06:37:22.390Z,93.03
2017-11-13T06:38:49.513Z,92.76
2017-11-13T06:40:20.717Z,92.77
2017-11-13T06:41:47.923Z,92.63
2017-11-13T06:43:11.028Z,92.51
2017-11-13T06:44:42.224Z,92.54
2017-11-13T06:46:09.298Z,92.63
2017-11-13T06:47:36.615Z,92.66
2017-11-13T06:49:03.927Z,92.83
2017-11-13T06:50:31.067Z,92.85
2017-11-13T06:51:58.268Z,92.73
2017-11-13T06:53:21.224Z,92.41
2017-11-13T06:54:52.508Z,92.56
2017-11-13T06:56:19.691Z,92.60
2017-11-13T06:57:46.818Z,92.43
2017-11-13T06:59:09.839Z,92.65
2017-11-13T07:00:40.945Z,92.84
2017-11-13T07:02:04.098Z,93.08
2017-11-13T07:03:31.448Z,93.08
2017-11-13T07:04:58.685Z,93.24
2017-11-13T07:06:26.033Z,93.59
2017-11-13T07:07:57.373Z,93.99
2017-11-13T07:09:20.684Z,94.06
2017-11-13T07:10:51.736Z,94.47
2017-11-13T07:12:19.025Z,94.76
2017-11-13T07:13:46.244Z,94.96
2017-11-13T07:15:13.443Z,94.99
2017-11-13T07:16:40.745Z,95.13
2017-11-13T07:18:03.925Z,95.18
2017-11-13T07:19:35.272Z,95.16
2017-11-13T07:20:58.535Z,95.03
2017-11-13T07:22:29.528Z,95.05
2017-11-13T07:23:56.831Z,94.92
2017-11-13T07:25:23.846Z,94.79
2017-11-13T07:26:51.133Z,94.60
2017-11-13T07:28:18.212Z,94.45
2017-11-13T07:29:40.926Z,94.40
2017-11-13T07:31:12.168Z,94.19
2017-11-13T07:32:39.173Z,93.86
2017-11-13T07:34:02.321Z,93.94
2017-11-13T07:35:33.663Z,93.83
2017-11-13T07:36:56.767Z,93.69
2017-11-13T07:38:24.092Z,93.63
2017-11-13T07:39:51.504Z,93.69
2017-11-13T07:41:22.761Z,93.64
2017-11-13T07:42:45.765Z,93.66
2017-11-13T07:44:17.059Z,93.57
2017-11-13T07:45:44.382Z,93.56
2017-11-13T07:47:07.323Z,93.56
2017-11-13T07:48:38.515Z,93.40
2017-11-13T07:50:05.328Z,93.27
2017-11-13T07:51:32.529Z,93.25
2017-11-13T07:52:59.910Z,93.30
2017-11-13T07:54:23.197Z,93.28
2017-11-13T07:55:50.552Z,93.26
2017-11-13T07:57:17.588Z,93.10
2017-11-13T07:58:48.772Z,93.13
2017-11-13T08:00:15.953Z,93.02
2017-11-13T08:01:39.066Z,93.00
2017-11-13T08:03:10.246Z,92.98
2017-11-13T08:04:37.634Z,93.05
2017-11-13T08:06:04.987Z,93.10
2017-11-13T08:07:28.338Z,93.12
2017-11-13T08:08:55.571Z,93.03
2017-11-13T08:10:22.818Z,93.20
2017-11-13T08:11:53.936Z,93.22
2017-11-13T08:13:17.299Z,93.31
2017-11-13T08:14:44.629Z,93.36
2017-11-13T08:16:11.826Z,93.45
2017-11-13T08:17:42.937Z,93.68
2017-11-13T08:19:06.115Z,93.57
2017-11-13T08:20:37.253Z,93.68
2017-11-13T08:22:00.616Z,93.83
2017-11-13T08:23:31.852Z,94.04
2017-11-13T08:24:55.154Z,93.81
2017-11-13T08:26:26.436Z,93.82
2017-11-13T08:27:49.813Z,93.94
2017-11-13T08:29:21.070Z,93.90
2017-11-13T08:30:48.192Z,93.82
2017-11-13T08:32:11.507Z,93.81
2017-11-13T08:33:38.790Z,94.06
2017-11-13T08:35:10.000Z,94.20
2017-11-13T08:36:33.148Z,94.21
2017-11-13T08:38:00.495Z,94.35
2017-11-13T08:39:27.869Z,94.32
2017-11-13T08:40:59.146Z,94.33
2017-11-13T08:42:22.435Z,94.35
2017-11-13T08:43:53.612Z,94.44
2017-11-13T08:45:20.889Z,94.59
2017-11-13T08:46:48.103Z,94.51
2017-11-13T08:48:11.427Z,94.55
2017-11-13T08:49:38.606Z,94.70
2017-11-13T08:51:05.796Z,94.91
2017-11-13T08:52:36.854Z,94.71
2017-11-13T08:54:03.925Z,94.67
2017-11-13T08:55:31.127Z,94.75
2017-11-13T08:56:58.236Z,94.74
2017-11-13T08:58:21.590Z,95.12
2017-11-13T08:59:52.675Z,95.13
2017-11-13T09:01:16.063Z,95.79
2017-11-13T09:02:43.249Z,96.10
2017-11-13T09:04:14.377Z,95.80
2017-11-13T09:05:37.511Z,95.48
2017-11-13T09:07:08.499Z,95.38
2017-11-13T09:08:32.010Z,95.47
2017-11-13T09:10:03.023Z,95.50
2017-11-13T09:11:30.281Z,95.61
2017-11-13T09:12:53.312Z,95.70
2017-11-13T09:14:20.730Z,95.61
2017-11-13T09:15:51.916Z,95.69
2017-11-13T09:17:15.077Z,95.69
2017-11-13T09:18:46.197Z,95.52
2017-11-13T09:20:13.511Z,95.01
2017-11-13T09:21:40.612Z,94.81
2017-11-13T09:23:07.874Z,94.53
2017-11-13T09:24:31.215Z,94.36
2017-11-13T09:25:58.554Z,94.22
2017-11-13T09:27:25.638Z,94.48
2017-11-13T09:28:53.005Z,94.73
2017-11-13T09:30:24.215Z,94.80
2017-11-13T09:31:47.652Z,95.21
2017-11-13T09:33:18.772Z,95.50
2017-11-13T09:34:46.128Z,95.31
2017-11-13T09:36:09.477Z,95.18
2017-11-13T09:37:40.445Z,94.80
2017-11-13T09:39:03.903Z,94.40
2017-11-13T09:40:35.200Z,94.01
2017-11-13T09:42:02.448Z,93.75
2017-11-13T09:43:25.869Z,93.67
2017-11-13T09:44:57.159Z,93.64
2017-11-13T09:46:20.481Z,93.64
2017-11-13T09:47:51.741Z,93.48
2017-11-13T09:49:19.209Z,93.29
2017-11-13T09:50:42.184Z,93.25
2017-11-13T09:52:13.600Z,93.12
2017-11-13T09:53:36.830Z,93.25
2017-11-13T09:55:04.168Z,93.57
2017-11-13T09:56:35.429Z,94.43
2017-11-13T09:58:02.759Z,94.83
2017-11-13T09:59:30.049Z,94.67
2017-11-13T10:00:57.175Z,94.22
2017-11-13T10:02:20.489Z,93.61
2017-11-13T10:03:51.665Z,93.90
2017-11-13T10:05:15.022Z,93.62
2017-11-13T10:06:42.345Z,93.07
2017-11-13T10:08:09.692Z,92.61
2017-11-13T10:09:41.002Z,91.55
2017-11-13T10:11:08.354Z,90.05
2017-11-13T10:12:35.599Z,89.62
2017-11-13T10:14:02.944Z,88.61
2017-11-13T10:15:30.371Z,89.30
2017-11-13T10:16:57.580Z,89.72
2017-11-13T10:18:24.866Z,89.88
2017-11-13T10:19:48.066Z,89.19
2017-11-13T10:21:19.305Z,88.86
2017-11-13T10:22:46.718Z,88.27
2017-11-13T10:24:13.751Z,87.80
2017-11-13T10:25:36.882Z,87.85
2017-11-13T10:27:04.197Z,87.66
2017-11-13T10:28:35.505Z,88.33
2017-11-13T10:30:02.677Z,88.15
2017-11-13T10:31:29.860Z,88.56
2017-11-13T10:32:53.255Z,89.30
2017-11-13T10:34:20.611Z,87.57
2017-11-13T10:35:47.739Z,87.33
2017-11-13T10:37:18.925Z,86.89
2017-11-13T10:38:42.161Z,86.30
2017-11-13T10:40:09.694Z,86.40
2017-11-13T10:41:37.043Z,86.77
2017-11-13T10:43:08.448Z,85.49
2017-11-13T10:44:35.768Z,85.31
2017-11-13T10:45:59.108Z,84.83
2017-11-13T10:47:30.158Z,84.80
2017-11-13T10:48:53.655Z,84.41
2017-11-13T10:50:24.724Z,84.65
2017-11-13T10:51:47.989Z,84.40
2017-11-13T10:53:18.906Z,83.89
2017-11-13T10:54:46.125Z,85.11
2017-11-13T10:56:09.615Z,84.52
2017-11-13T10:57:36.804Z,84.58
2017-11-13T10:59:08.143Z,83.70
2017-11-13T11:00:35.544Z,84.14
2017-11-13T11:02:02.789Z,82.95
2017-11-13T11:03:26.083Z,83.22
2017-11-13T11:04:53.168Z,82.84
2017-11-13T11:06:24.403Z,80.59
2017-11-13T11:07:51.787Z,81.57
2017-11-13T11:09:15.061Z,80.73
2017-11-13T11:10:42.291Z,80.88
2017-11-13T11:12:13.456Z,80.34
2017-11-13T11:13:40.400Z,80.51
2017-11-13T11:15:07.645Z,78.66
2017-11-13T11:16:34.877Z,78.03
2017-11-13T11:18:02.115Z,79.03
2017-11-13T11:19:25.220Z,78.42
2017-11-13T11:20:52.617Z,78.17
2017-11-13T11:22:23.767Z,78.77
2017-11-13T11:23:46.857Z,78.73
2017-11-13T11:25:14.101Z,79.67
2017-11-13T11:26:45.309Z,78.47
2017-11-13T11:28:12.550Z,77.57
2017-11-13T11:29:39.702Z,77.65
2017-11-13T11:31:07.098Z,76.84
2017-11-13T11:32:30.258Z,75.87
2017-11-13T11:34:01.585Z,76.06
2017-11-13T11:35:25.043Z,75.98
2017-11-13T11:36:55.973Z,76.71
2017-11-13T11:38:23.231Z,76.44
2017-11-13T11:39:46.360Z,76.77
2017-11-13T11:41:17.511Z,76.99
2017-11-13T11:42:44.674Z,77.10
2017-11-13T11:44:07.779Z,77.11
2017-11-13T11:45:39.063Z,78.19
2017-11-13T11:47:06.122Z,77.62
2017-11-13T11:48:33.401Z,77.49
2017-11-13T11:49:56.667Z,76.19
2017-11-13T11:51:27.772Z,76.63
2017-11-13T11:52:50.979Z,76.79
2017-11-13T11:54:18.341Z,77.83
2017-11-13T11:55:45.566Z,76.13
2017-11-13T11:57:16.623Z,75.56
2017-11-13T11:58:43.852Z,76.25
2017-11-13T12:00:11.140Z,75.21
2017-11-13T12:01:38.421Z,74.87
2017-11-13T12:03:05.641Z,74.49
2017-11-13T12:04:28.938Z,74.98
2017-11-13T12:06:00.107Z,75.23
2017-11-13T12:07:27.453Z,75.84
2017-11-13T12:08:50.638Z,75.91
2017-11-13T12:10:22.136Z,74.55
2017-11-13T12:11:49.300Z,73.67
2017-11-13T12:13:16.691Z,74.02
2017-11-13T12:14:43.611Z,75.70
2017-11-13T12:16:06.786Z,75.21
2017-11-13T12:17:34.069Z,74.62
2017-11-13T12:19:01.282Z,75.36
2017-11-13T12:20:32.556Z,74.76
2017-11-13T12:23:23.223Z,76.27
2017-11-13T12:24:54.510Z,75.85
2017-11-13T12:26:21.975Z,76.75
2017-11-13T12:27:45.120Z,75.50
2017-11-13T12:29:16.426Z,75.70
2017-11-13T12:30:43.544Z,75.74
2017-11-13T12:32:06.746Z,75.75
2017-11-13T12:33:37.794Z,75.39
2017-11-13T12:35:00.974Z,76.96
2017-11-13T12:36:32.332Z,76.30
2017-11-13T12:37:55.519Z,76.98
2017-11-13T12:39:26.810Z,76.99
2017-11-13T12:40:49.816Z,76.84
2017-11-13T12:42:17.375Z,75.90
2017-11-13T12:43:44.585Z,76.44
2017-11-13T12:45:11.967Z,76.64
2017-11-13T12:46:39.206Z,76.30
2017-11-13T12:48:06.536Z,75.23
2017-11-13T12:49:37.823Z,76.19
2017-11-13T12:51:00.750Z,76.44
2017-11-13T12:52:28.075Z,76.22
2017-11-13T12:53:59.096Z,75.03
2017-11-13T12:55:26.371Z,75.78
2017-11-13T12:56:49.753Z,75.56
2017-11-13T12:58:16.966Z,74.41
2017-11-13T12:59:44.261Z,75.21
2017-11-13T13:01:15.530Z,75.68
2017-11-13T13:02:38.584Z,75.00
2017-11-13T13:04:09.686Z,75.37
2017-11-13T13:05:37.193Z,74.61
2017-11-13T13:07:00.359Z,75.33
2017-11-13T13:08:31.745Z,75.80
2017-11-13T13:09:55.136Z,77.07
2017-11-13T13:11:26.375Z,76.23
2017-11-13T13:12:53.590Z,76.52
2017-11-13T13:14:20.644Z,77.13
2017-11-13T13:15:47.654Z,76.48
2017-11-13T13:17:11.118Z,77.00
2017-11-13T13:18:38.057Z,76.93
2017-11-13T13:20:09.624Z,76.81
2017-11-13T13:21:36.645Z,77.43
2017-11-13T13:22:59.757Z,78.03
2017-11-13T13:24:30.996Z,78.02
2017-11-13T13:25:58.412Z,77.63
2017-11-13T13:27:25.585Z,77.82
2017-11-13T13:28:53.069Z,77.93
2017-11-13T13:30:19.949Z,78.20
2017-11-13T13:31:43.228Z,78.34
2017-11-13T13:33:10.546Z,78.44
2017-11-13T13:34:37.698Z,78.32
2017-11-13T13:37:36.453Z,78.99
2017-11-13T13:39:03.807Z,78.81
2017-11-13T13:40:26.901Z,78.89
2017-11-13T13:41:54.136Z,78.43
2017-11-13T13:43:21.447Z,78.87
2017-11-13T13:44:48.783Z,78.70
2017-11-13T13:46:19.955Z,78.98
2017-11-13T13:47:43.213Z,78.63
2017-11-13T13:49:14.339Z,79.07
2017-11-13T13:50:41.321Z,78.56
2017-11-13T13:52:08.580Z,78.79
2017-11-13T13:53:35.976Z,78.90
2017-11-13T13:54:59.075Z,78.84
2017-11-13T13:56:30.194Z,78.77
2017-11-13T13:57:57.108Z,79.37
2017-11-13T13:59:24.545Z,79.55
2017-11-13T14:00:51.704Z,78.91
2017-11-13T14:02:15.262Z,79.10
2017-11-13T14:03:46.192Z,79.12
2017-11-13T14:05:13.404Z,79.28
2017-11-13T14:06:36.709Z,79.17
2017-11-13T14:08:07.581Z,78.97
2017-11-13T14:09:34.864Z,79.39
2017-11-13T14:11:02.119Z,79.47
2017-11-13T14:12:29.365Z,79.53
2017-11-13T14:13:52.768Z,79.43
2017-11-13T14:15:23.823Z,79.54
2017-11-13T14:16:47.138Z,79.73
2017-11-13T14:18:18.564Z,79.96
2017-11-13T14:19:45.694Z,79.94
2017-11-13T14:21:09.016Z,80.02
2017-11-13T14:22:40.056Z,80.38
2017-11-13T14:24:07.018Z,80.27
2017-11-13T14:25:30.233Z,79.70
2017-11-13T14:27:01.347Z,79.63
2017-11-13T14:28:24.756Z,79.70
2017-11-13T14:29:56.058Z,79.91
2017-11-13T14:31:19.170Z,80.04
2017-11-13T14:32:50.363Z,80.19
2017-11-13T14:34:17.703Z,79.56
2017-11-13T14:35:44.843Z,79.92
2017-11-13T14:37:11.585Z,79.33
2017-11-13T14:38:38.645Z,79.61
2017-11-13T14:40:05.806Z,79.59
2017-11-13T14:41:33.057Z,79.68
2017-11-13T14:42:56.254Z,79.83
2017-11-13T14:44:27.522Z,80.14
2017-11-13T14:45:54.809Z,79.91
2017-11-13T14:47:18.301Z,80.21
2017-11-13T14:48:49.291Z,80.23
2017-11-13T14:51:43.441Z,80.74
2017-11-13T14:53:10.619Z,80.47
2017-11-13T14:54:33.855Z,80.61
2017-11-13T14:56:04.880Z,80.39
2017-11-13T14:57:27.918Z,80.32
2017-11-13T14:58:59.096Z,80.32
2017-11-13T15:00:26.573Z,80.19
2017-11-13T15:01:53.672Z,80.47
2017-11-13T15:03:20.789Z,80.49
2017-11-13T15:04:48.066Z,80.66
2017-11-13T15:06:15.294Z,80.80
2017-11-13T15:07:42.273Z,81.15
2017-11-13T15:09:05.341Z,81.07
2017-11-13T15:10:36.578Z,81.07
2017-11-13T15:11:59.940Z,81.35
2017-11-13T15:13:31.076Z,81.03
2017-11-13T15:14:58.449Z,81.30
2017-11-13T15:16:21.739Z,80.71
2017-11-13T15:17:52.875Z,80.96
2017-11-13T15:19:19.802Z,80.57
2017-11-13T15:20:46.931Z,80.10
2017-11-13T15:22:13.906Z,80.46
2017-11-13T15:23:41.009Z,80.29
2017-11-13T15:25:08.387Z,80.10
2017-11-13T15:26:35.528Z,80.23
2017-11-13T15:28:02.500Z,80.08
2017-11-13T15:29:29.766Z,80.21
2017-11-13T15:30:57.001Z,80.34
2017-11-13T15:32:24.259Z,80.25
2017-11-13T15:33:47.641Z,80.04
2017-11-13T15:35:18.986Z,80.71
2017-11-13T15:36:41.961Z,80.29
2017-11-13T15:38:12.937Z,80.97
2017-11-13T15:39:36.144Z,81.20
2017-11-13T15:41:07.279Z,80.54
2017-11-13T15:42:34.596Z,80.58
2017-11-13T15:44:01.783Z,80.22
2017-11-13T15:45:29.145Z,81.17
2017-11-13T15:46:56.438Z,80.99
2017-11-13T15:48:19.802Z,80.70
2017-11-13T15:49:50.946Z,80.77
2017-11-13T15:51:17.914Z,81.22
2017-11-13T15:52:45.164Z,81.16
2017-11-13T15:54:12.129Z,81.18
2017-11-13T15:55:35.257Z,81.38
2017-11-13T15:57:02.129Z,81.05
2017-11-13T15:58:29.297Z,81.09
2017-11-13T16:00:00.658Z,80.96
2017-11-13T16:01:27.591Z,80.98
2017-11-13T16:02:50.546Z,81.25
2017-11-13T16:04:17.631Z,81.44
2017-11-13T16:05:48.936Z,81.67
2017-11-13T16:07:12.006Z,81.62
2017-11-13T16:08:43.257Z,81.25
2017-11-13T16:10:06.446Z,81.13
2017-11-13T16:11:33.527Z,81.35
2017-11-13T16:13:05.851Z,80.67
2017-11-13T16:14:31.797Z,80.63
2017-11-13T16:15:58.992Z,80.96
2017-11-13T16:17:25.897Z,80.95
2017-11-13T16:18:53.078Z,81.04
2017-11-13T16:20:16.220Z,81.44
2017-11-13T16:21:47.490Z,82.30
2017-11-13T16:23:14.790Z,81.80
2017-11-13T16:24:38.017Z,81.86
2017-11-13T16:26:09.147Z,81.40
2017-11-13T16:27:32.377Z,81.44
2017-11-13T16:29:03.848Z,80.92
2017-11-13T16:30:31.261Z,80.95
2017-11-13T16:31:58.468Z,80.92
2017-11-13T16:33:25.648Z,80.91
2017-11-13T16:34:52.954Z,80.89
2017-11-13T16:36:20.426Z,80.96
2017-11-13T16:37:43.536Z,81.07
2017-11-13T16:39:14.928Z,81.00
2017-11-13T16:40:41.925Z,81.00
2017-11-13T16:42:04.996Z,81.41
2017-11-13T16:43:32.356Z,81.08
2017-11-13T16:44:59.615Z,81.83
2017-11-13T16:46:30.882Z,81.36
2017-11-13T16:47:57.997Z,80.94
2017-11-13T16:49:21.461Z,81.59
2017-11-13T16:50:52.493Z,81.58
2017-11-13T16:52:19.675Z,81.51
2017-11-13T16:53:46.847Z,81.42
2017-11-13T16:55:14.107Z,81.19
2017-11-13T16:56:41.053Z,81.11
2017-11-13T16:58:04.404Z,81.05
2017-11-13T16:59:35.784Z,81.33
2017-11-13T17:01:02.648Z,80.90
2017-11-13T17:02:29.843Z,81.45
2017-11-13T17:03:56.995Z,81.23
2017-11-13T17:05:24.017Z,81.35
2017-11-13T17:06:51.170Z,81.92
2017-11-13T17:08:18.341Z,81.27
2017-11-13T17:09:45.449Z,81.45
2017-11-13T17:11:12.609Z,80.92
2017-11-13T17:12:39.721Z,81.25
2017-11-13T17:14:06.958Z,81.41
2017-11-13T17:15:34.214Z,81.25
2017-11-13T17:17:01.453Z,81.37
2017-11-13T17:18:28.774Z,81.30
2017-11-13T17:19:55.837Z,81.07
2017-11-13T17:21:23.159Z,81.12
2017-11-13T17:22:46.502Z,81.12
2017-11-13T17:24:17.643Z,81.27
2017-11-13T17:25:40.793Z,81.07
2017-11-13T17:27:11.874Z,81.00
2017-11-13T17:28:39.165Z,81.22
2017-11-13T17:30:06.515Z,81.40
2017-11-13T17:31:33.813Z,81.56
2017-11-13T17:32:57.178Z,81.18
2017-11-13T17:34:28.378Z,81.19
2017-11-13T17:35:55.447Z,80.79
2017-11-13T17:37:22.798Z,81.07
2017-11-13T17:38:50.207Z,80.95
2017-11-13T17:40:13.344Z,81.01
2017-11-13T17:41:44.090Z,80.93
2017-11-13T17:43:07.313Z,81.05
2017-11-13T17:44:38.628Z,81.17
2017-11-13T17:46:05.581Z,81.01
2017-11-13T17:47:32.889Z,80.68
2017-11-13T17:49:01.155Z,80.55
2017-11-13T17:50:23.458Z,80.25
2017-11-13T17:51:54.334Z,80.79
2017-11-13T17:53:17.435Z,80.84
2017-11-13T17:54:48.373Z,80.58
2017-11-13T17:56:11.286Z,80.91
2017-11-13T17:57:41.938Z,80.89
2017-11-13T17:59:09.138Z,80.91
2017-11-13T18:00:35.929Z,80.65
2017-11-13T18:01:59.152Z,80.27
2017-11-13T18:03:30.418Z,80.13
2017-11-13T18:04:57.492Z,80.33
2017-11-13T18:06:21.030Z,79.86
2017-11-13T18:07:52.038Z,79.68
2017-11-13T18:09:19.321Z,79.74
2017-11-13T18:10:46.338Z,79.92
2017-11-13T18:12:13.310Z,79.89
2017-11-13T18:13:40.546Z,80.14
2017-11-13T18:15:07.800Z,79.97
2017-11-13T18:16:34.725Z,79.61
2017-11-13T18:18:01.845Z,79.41
2017-11-13T18:19:29.172Z,79.62
2017-11-13T18:20:56.169Z,79.71
2017-11-13T18:22:19.469Z,79.48
2017-11-13T18:23:50.557Z,79.34
2017-11-13T18:25:17.838Z,79.41
2017-11-13T18:26:45.096Z,79.83
2017-11-13T18:28:12.354Z,79.77
2017-11-13T18:29:35.259Z,79.99
2017-11-13T18:31:02.747Z,78.78
2017-11-13T18:32:34.062Z,79.93
2017-11-13T18:34:01.085Z,79.70
2017-11-13T18:35:28.391Z,79.76
2017-11-13T18:36:55.500Z,79.57
2017-11-13T18:38:22.896Z,79.31
2017-11-13T18:39:50.118Z,79.55
2017-11-13T18:41:17.126Z,79.34
2017-11-13T18:42:44.276Z,79.67
2017-11-13T18:44:11.262Z,79.76
2017-11-13T18:45:38.633Z,79.89
2017-11-13T18:47:06.005Z,80.20